Time;durP1;ratioP1;P1;durP2;ratioP2;P2;SDS_P1;SDS_P2;PMS_P1;PMS_P2;Temp;Humidity;BMP_temperature;BMP_pressure;BME280_temperature;BME280_humidity;BME280_pressure;Samples;Min_cycle;Max_cycle;Signal;HPM_P1;HPM_P2
2022/07/15 00:00:26;;;;;;;0.98;0.70;;;;;;;28.60;35.29;99190.03;5070582;28;20405;-64
2022/07/15 00:02:52;;;;;;;1.10;0.80;;;;;;;28.61;35.29;99180.34;5071170;28;20090;-58
2022/07/15 00:05:18;;;;;;;1.20;0.90;;;;;;;28.60;35.51;99178.78;5081807;28;20048;-63
2022/07/15 00:07:43;;;;;;;0.90;0.70;;;;;;;28.58;35.47;99175.59;5071705;28;20043;-64
2022/07/15 00:10:15;;;;;;;1.70;0.98;;;;;;;28.57;35.63;99174.78;5070388;28;20051;-58
2022/07/15 00:12:46;;;;;;;1.00;0.80;;;;;;;28.59;35.59;99180.00;5078314;28;20051;-57
2022/07/15 00:15:13;;;;;;;1.30;0.88;;;;;;;28.59;35.42;99180.78;5076224;28;20274;-57
2022/07/15 00:17:40;;;;;;;0.80;0.70;;;;;;;28.60;35.29;99182.38;5071261;28;20445;-64
2022/07/15 00:20:06;;;;;;;1.20;0.90;;;;;;;28.60;35.41;99184.41;5080492;28;20126;-64
2022/07/15 00:22:32;;;;;;;1.67;1.08;;;;;;;28.59;35.54;99186.41;5079437;28;20035;-58
2022/07/15 00:24:57;;;;;;;0.98;0.80;;;;;;;28.60;35.73;99192.84;5079023;28;20174;-64
2022/07/15 00:27:23;;;;;;;1.50;1.08;;;;;;;28.55;35.52;99180.06;5073860;28;20428;-64
2022/07/15 00:29:50;;;;;;;1.65;1.10;;;;;;;28.57;35.60;99185.25;5078726;28;20048;-64
2022/07/15 00:32:16;;;;;;;1.60;1.00;;;;;;;28.56;35.71;99183.66;5077251;28;20052;-64
2022/07/15 00:34:41;;;;;;;2.00;1.30;;;;;;;28.54;35.68;99189.72;5074990;28;20079;-64
2022/07/15 00:37:07;;;;;;;1.45;1.05;;;;;;;28.52;35.83;99186.56;5071213;28;20086;-64
2022/07/15 00:39:32;;;;;;;2.08;1.30;;;;;;;28.51;35.63;99185.78;5075672;28;20040;-64
2022/07/15 00:41:57;;;;;;;1.60;1.08;;;;;;;28.55;35.69;99182.09;5075692;28;20047;-64
2022/07/15 00:44:24;;;;;;;1.63;1.20;;;;;;;28.57;35.53;99186.03;5081338;28;20101;-64
2022/07/15 00:46:51;;;;;;;1.88;1.30;;;;;;;28.51;35.71;99179.34;5086731;28;20512;-58
2022/07/15 00:49:16;;;;;;;1.70;1.15;;;;;;;28.51;35.65;99182.97;5079713;28;20048;-64
2022/07/15 00:51:49;;;;;;;1.63;1.10;;;;;;;28.53;35.77;99185.34;5074176;28;20051;-64
2022/07/15 00:54:16;;;;;;;1.65;1.08;;;;;;;28.54;35.70;99181.28;5079210;28;20053;-64
2022/07/15 00:56:52;;;;;;;1.80;1.13;;;;;;;28.54;35.69;99169.25;5072206;28;20454;-57
2022/07/15 00:59:20;;;;;;;1.73;1.20;;;;;;;28.52;35.94;99176.09;5071220;28;20043;-57
2022/07/15 01:01:46;;;;;;;1.73;1.20;;;;;;;28.52;35.69;99164.84;5071506;28;20138;-64
2022/07/15 01:04:13;;;;;;;1.25;1.00;;;;;;;28.54;35.77;99172.84;5075314;28;20051;-65
2022/07/15 01:06:38;;;;;;;1.55;1.10;;;;;;;28.48;35.56;99169.75;5072862;28;20420;-64
2022/07/15 01:09:04;;;;;;;1.60;1.08;;;;;;;28.52;35.77;99172.50;5070146;28;20550;-58
2022/07/15 01:11:30;;;;;;;1.45;0.95;;;;;;;28.50;35.70;99172.94;5080344;28;20080;-64
2022/07/15 01:13:57;;;;;;;1.40;1.00;;;;;;;28.47;35.59;99173.78;5073599;28;20406;-57
2022/07/15 01:16:23;;;;;;;1.50;1.00;;;;;;;28.48;35.60;99171.75;5081027;28;20098;-57
2022/07/15 01:18:48;;;;;;;1.90;1.10;;;;;;;28.48;35.77;99183.81;5081015;28;20044;-57
2022/07/15 01:21:14;;;;;;;1.45;0.98;;;;;;;28.48;36.04;99175.38;5081349;28;20048;-57
2022/07/15 01:23:42;;;;;;;1.83;1.00;;;;;;;28.50;35.85;99181.38;5078758;28;20056;-58
2022/07/15 01:26:11;;;;;;;1.60;1.00;;;;;;;28.47;35.63;99190.66;5069192;28;20044;-58
2022/07/15 01:28:37;;;;;;;1.13;0.80;;;;;;;28.49;35.87;99184.59;5083857;28;20074;-57
2022/07/15 01:31:02;;;;;;;1.55;1.00;;;;;;;28.48;35.83;99175.38;5075519;28;20076;-64
2022/07/15 01:33:29;;;;;;;1.35;0.90;;;;;;;28.47;35.70;99179.41;5077232;28;20044;-64
2022/07/15 01:35:56;;;;;;;1.23;0.80;;;;;;;28.46;35.72;99182.66;5076907;28;20139;-58
2022/07/15 01:38:21;;;;;;;1.08;0.80;;;;;;;28.49;35.82;99187.41;5074128;28;20576;-64
2022/07/15 01:40:46;;;;;;;1.20;0.80;;;;;;;28.49;35.80;99185.41;5078165;28;20033;-64
2022/07/15 01:43:12;;;;;;;1.10;0.80;;;;;;;28.46;35.79;99182.66;5069077;28;20040;-64
2022/07/15 01:45:42;;;;;;;1.27;0.80;;;;;;;28.47;35.94;99185.03;5082752;28;20056;-64
2022/07/15 01:49:21;;;;;;;1.40;0.90;;;;;;;28.44;36.00;99185.91;5084525;28;20542;-58
2022/07/15 01:50:53;;;;;;;1.05;0.70;;;;;;;28.46;36.06;99189.09;5071875;28;20128;-58
2022/07/15 01:53:18;;;;;;;1.15;0.85;;;;;;;28.46;36.02;99185.47;5072250;28;20386;-57
2022/07/15 01:55:44;;;;;;;0.70;0.60;;;;;;;28.42;36.07;99196.00;5068904;28;20726;-57
2022/07/15 01:58:09;;;;;;;1.40;0.90;;;;;;;28.42;36.06;99199.59;5068999;28;20080;-64
2022/07/15 02:00:34;;;;;;;1.00;0.73;;;;;;;28.43;35.93;99189.97;5068664;28;20051;-58
2022/07/15 02:03:00;;;;;;;1.23;0.90;;;;;;;28.40;36.08;99188.00;5075979;28;20048;-64
2022/07/15 02:05:26;;;;;;;0.85;0.80;;;;;;;28.42;35.99;99188.34;5082676;28;20040;-64
2022/07/15 02:07:51;;;;;;;1.20;0.80;;;;;;;28.44;36.07;99194.38;5070319;28;20067;-64
2022/07/15 02:10:16;;;;;;;1.15;0.73;;;;;;;28.42;36.14;99198.81;5073433;28;20046;-64
2022/07/15 02:12:42;;;;;;;1.20;0.80;;;;;;;28.41;36.22;99198.03;5093083;28;20048;-58
2022/07/15 02:15:08;;;;;;;0.90;0.60;;;;;;;28.42;36.28;99193.19;5090766;28;20466;-57
2022/07/15 02:17:33;;;;;;;0.93;0.70;;;;;;;28.45;36.02;99193.13;5093774;28;20043;-58
2022/07/15 02:19:59;;;;;;;1.60;0.70;;;;;;;28.42;35.90;99185.53;5092848;28;20443;-64
2022/07/15 02:22:24;;;;;;;1.52;0.70;;;;;;;28.44;36.12;99194.38;5097199;28;20104;-64
2022/07/15 02:24:50;;;;;;;0.75;0.60;;;;;;;28.43;36.21;99195.59;5098510;28;20127;-64
2022/07/15 02:27:15;;;;;;;0.80;0.60;;;;;;;28.44;36.00;99196.38;5108211;28;20044;-57
2022/07/15 02:29:40;;;;;;;0.82;0.63;;;;;;;28.40;36.15;99198.47;5099016;28;20468;-58
2022/07/15 02:32:09;;;;;;;0.82;0.70;;;;;;;28.39;36.21;99194.84;5094415;28;20124;-58
2022/07/15 02:34:34;;;;;;;0.75;0.60;;;;;;;28.40;36.04;99193.63;5107751;28;20044;-64
2022/07/15 02:37:00;;;;;;;0.80;0.70;;;;;;;28.43;35.99;99201.22;5099263;28;20529;-57
2022/07/15 02:39:25;;;;;;;1.20;0.70;;;;;;;28.41;36.14;99186.78;5107531;28;20410;-57
2022/07/15 02:41:51;;;;;;;0.95;0.70;;;;;;;28.42;36.22;99193.97;5105580;28;20044;-57
2022/07/15 02:44:17;;;;;;;1.02;0.73;;;;;;;28.41;35.96;99203.66;5095036;28;20529;-58
2022/07/15 02:46:44;;;;;;;0.90;0.70;;;;;;;28.39;36.50;99196.88;5098708;28;20571;-58
2022/07/15 02:49:11;;;;;;;1.02;0.70;;;;;;;28.39;36.32;99197.66;5096188;28;20465;-58
2022/07/15 02:51:36;;;;;;;1.00;0.52;;;;;;;28.38;36.16;99186.84;5100808;28;20055;-58
2022/07/15 02:54:01;;;;;;;1.20;0.82;;;;;;;28.41;36.37;99189.59;5099162;28;20040;-58
2022/07/15 02:56:28;;;;;;;1.17;0.70;;;;;;;28.40;36.18;99185.19;5099262;28;20623;-58
2022/07/15 02:58:53;;;;;;;0.77;0.57;;;;;;;28.38;36.26;99187.66;5100884;28;20036;-57
2022/07/15 03:01:19;;;;;;;0.85;0.60;;;;;;;28.38;36.29;99196.09;5104688;28;20514;-58
2022/07/15 03:03:45;;;;;;;0.98;0.70;;;;;;;28.38;36.23;99186.84;5095290;28;20081;-58
2022/07/15 03:06:10;;;;;;;0.95;0.70;;;;;;;28.39;36.06;99191.25;5089568;28;20040;-64
2022/07/15 03:08:36;;;;;;;1.38;0.80;;;;;;;28.39;36.05;99197.66;5105058;28;20046;-58
2022/07/15 03:11:02;;;;;;;0.70;0.60;;;;;;;28.37;35.99;99191.69;5093877;28;20063;-57
2022/07/15 03:13:27;;;;;;;0.90;0.65;;;;;;;28.39;36.34;99192.03;5097962;28;20085;-64
2022/07/15 03:15:54;;;;;;;0.70;0.60;;;;;;;28.39;35.86;99192.03;5098680;28;20040;-64
2022/07/15 03:18:23;;;;;;;1.10;0.90;;;;;;;28.39;35.82;99197.66;5091452;28;20048;-58
2022/07/15 03:20:49;;;;;;;0.95;0.70;;;;;;;28.38;36.04;99201.72;5100357;28;20060;-57
2022/07/15 03:23:15;;;;;;;0.80;0.70;;;;;;;28.38;36.11;99198.09;5094832;28;20109;-63
2022/07/15 03:25:41;;;;;;;0.88;0.60;;;;;;;28.39;35.88;99200.47;5090628;28;20044;-64
2022/07/15 03:28:07;;;;;;;0.70;0.60;;;;;;;28.39;35.91;99194.84;5097090;28;20412;-57
2022/07/15 03:30:32;;;;;;;0.95;0.63;;;;;;;28.37;35.92;99196.53;5101736;28;20043;-64
2022/07/15 03:32:58;;;;;;;1.13;0.60;;;;;;;28.38;36.03;99200.91;5102046;28;20218;-63
2022/07/15 03:35:23;;;;;;;1.23;0.70;;;;;;;28.33;35.93;99192.97;5102395;28;20414;-64
2022/07/15 03:37:49;;;;;;;0.93;0.70;;;;;;;28.38;35.91;99198.09;5095572;28;20508;-64
2022/07/15 03:40:14;;;;;;;0.80;0.68;;;;;;;28.37;35.89;99202.94;5101284;28;20097;-57
2022/07/15 03:42:39;;;;;;;1.20;0.80;;;;;;;28.39;35.85;99199.69;5103621;28;20040;-64
2022/07/15 03:45:05;;;;;;;0.80;0.60;;;;;;;28.38;35.91;99203.75;5102408;28;20036;-64
2022/07/15 03:47:31;;;;;;;0.60;0.60;;;;;;;28.40;35.83;99201.28;5099143;28;20055;-57
2022/07/15 03:49:56;;;;;;;0.73;0.60;;;;;;;28.39;35.85;99206.13;5109406;28;20036;-58
2022/07/15 03:52:22;;;;;;;0.90;0.70;;;;;;;28.36;35.77;99207.00;5103062;28;20110;-57
2022/07/15 03:54:47;;;;;;;1.45;0.68;;;;;;;28.39;35.90;99217.38;5099412;28;20039;-58
2022/07/15 03:57:13;;;;;;;0.90;0.70;;;;;;;28.37;35.93;99219.81;5097891;28;20426;-57
2022/07/15 03:59:39;;;;;;;0.73;0.60;;;;;;;28.35;35.93;99221.47;5096812;28;20088;-64
2022/07/15 04:02:04;;;;;;;0.82;0.70;;;;;;;28.35;36.01;99221.47;5101990;28;20043;-64
2022/07/15 04:04:30;;;;;;;0.90;0.60;;;;;;;28.34;36.02;99222.69;5099976;28;20101;-64
2022/07/15 04:06:55;;;;;;;0.85;0.70;;;;;;;28.40;36.04;99227.38;5090745;28;20044;-64
2022/07/15 04:09:20;;;;;;;0.70;0.60;;;;;;;28.33;35.96;99221.91;5101738;28;20218;-64
2022/07/15 04:11:46;;;;;;;1.00;0.70;;;;;;;28.35;36.09;99215.84;5097534;28;20139;-64
2022/07/15 04:14:13;;;;;;;0.80;0.70;;;;;;;28.36;36.04;99232.31;5102751;28;20071;-64
2022/07/15 04:16:38;;;;;;;0.77;0.70;;;;;;;28.37;35.98;99227.47;5108302;28;20495;-64
2022/07/15 04:19:04;;;;;;;0.90;0.60;;;;;;;28.36;35.87;99218.25;5091640;28;20044;-64
2022/07/15 04:21:31;;;;;;;0.80;0.70;;;;;;;28.37;35.86;99227.47;5104473;28;20134;-58
2022/07/15 04:23:56;;;;;;;0.90;0.70;;;;;;;28.36;36.08;99226.69;5099508;28;20040;-58
2022/07/15 04:26:22;;;;;;;0.60;0.60;;;;;;;28.30;35.98;99219.97;5101383;28;20100;-64
2022/07/15 04:28:47;;;;;;;0.77;0.60;;;;;;;28.35;35.96;99230.69;5099172;28;20119;-63
2022/07/15 04:31:13;;;;;;;0.70;0.60;;;;;;;28.33;35.82;99221.91;5101175;28;20055;-64
2022/07/15 04:33:38;;;;;;;0.50;0.50;;;;;;;28.36;36.03;99220.22;5098517;28;20040;-64
2022/07/15 04:36:04;;;;;;;0.98;0.70;;;;;;;28.35;35.93;99227.88;5096811;28;20385;-58
2022/07/15 04:38:29;;;;;;;0.70;0.50;;;;;;;28.32;36.04;99223.13;5098751;28;20039;-58
2022/07/15 04:40:55;;;;;;;0.65;0.60;;;;;;;28.31;36.06;99227.16;5106172;28;20510;-57
2022/07/15 04:43:20;;;;;;;0.93;0.70;;;;;;;28.31;36.06;99229.97;5105033;28;20056;-64
2022/07/15 04:45:46;;;;;;;1.02;0.68;;;;;;;28.31;36.13;99229.19;5105239;28;20032;-64
2022/07/15 04:50:56;;;;;;;0.82;0.70;;;;;;;28.34;36.21;99225.50;5102911;28;20084;-64
2022/07/15 04:53:23;;;;;;;0.93;0.70;;;;;;;28.36;36.38;99235.13;5102780;28;20396;-58
2022/07/15 04:55:48;;;;;;;1.50;0.70;;;;;;;28.33;36.22;99235.16;5093867;28;20472;-64
2022/07/15 04:58:14;;;;;;;0.88;0.60;;;;;;;28.39;36.06;99230.63;5100205;28;20127;-58
2022/07/15 05:00:45;;;;;;;0.82;0.63;;;;;;;28.40;36.36;99230.19;5102694;28;20050;-58
2022/07/15 05:03:10;;;;;;;0.70;0.60;;;;;;;28.41;36.30;99219.75;5095795;28;20039;-64
2022/07/15 05:05:36;;;;;;;1.10;0.68;;;;;;;28.47;36.30;99223.66;5092481;28;20077;-64
2022/07/15 05:08:02;;;;;;;0.85;0.60;;;;;;;28.52;36.37;99225.97;5098678;28;20071;-64
2022/07/15 05:10:27;;;;;;;0.80;0.60;;;;;;;28.54;36.37;99222.72;5093201;28;20096;-64
2022/07/15 05:12:53;;;;;;;0.90;0.60;;;;;;;28.57;36.21;99227.47;5092575;28;20036;-64
2022/07/15 05:15:18;;;;;;;0.98;0.70;;;;;;;28.61;36.26;99233.81;5097844;28;20580;-66
2022/07/15 05:17:44;;;;;;;1.08;0.80;;;;;;;28.60;36.57;99230.22;5099401;28;20100;-66
2022/07/15 05:20:09;;;;;;;1.13;0.80;;;;;;;28.55;36.66;99224.28;5109609;28;20484;-65
2022/07/15 05:22:35;;;;;;;1.75;0.70;;;;;;;28.59;36.72;99219.41;5093409;28;20039;-58
2022/07/15 05:25:00;;;;;;;1.23;0.73;;;;;;;28.62;36.82;99235.41;5103458;28;20688;-59
2022/07/15 05:27:26;;;;;;;1.25;0.60;;;;;;;28.64;36.77;99238.56;5110214;28;20051;-65
2022/07/15 05:29:51;;;;;;;3.85;0.85;;;;;;;28.68;36.67;99242.13;5092447;28;20153;-58
2022/07/15 05:32:16;;;;;;;1.30;0.80;;;;;;;28.70;36.51;99242.47;5102778;28;20036;-59
2022/07/15 05:34:42;;;;;;;1.98;0.70;;;;;;;28.71;36.76;99238.44;5093485;28;20380;-65
2022/07/15 05:37:10;;;;;;;2.58;0.90;;;;;;;28.72;36.65;99242.81;5091690;28;20553;-59
2022/07/15 05:39:36;;;;;;;1.33;0.70;;;;;;;28.76;36.72;99241.53;5094695;28;20068;-59
2022/07/15 05:42:02;;;;;;;2.90;0.75;;;;;;;28.77;36.73;99242.34;5089957;28;20051;-66
2022/07/15 05:44:27;;;;;;;0.90;0.60;;;;;;;28.77;36.78;99237.50;5086186;28;20043;-66
2022/07/15 05:46:54;;;;;;;1.02;0.60;;;;;;;28.80;36.72;99241.47;5098036;28;20387;-66
2022/07/15 05:49:21;;;;;;;0.50;0.50;;;;;;;28.81;36.76;99243.06;5093742;28;20097;-59
2022/07/15 05:51:46;;;;;;;2.63;0.90;;;;;;;28.83;36.77;99246.22;5092031;28;20035;-66
2022/07/15 05:54:13;;;;;;;1.10;0.73;;;;;;;28.86;36.66;99247.38;5103718;28;20050;-59
2022/07/15 05:56:39;;;;;;;0.90;0.70;;;;;;;28.84;36.66;99245.00;5099280;28;20055;-66
2022/07/15 05:59:04;;;;;;;2.10;0.70;;;;;;;28.84;36.74;99236.56;5087946;28;20032;-65
2022/07/15 06:01:30;;;;;;;0.98;0.70;;;;;;;28.87;36.64;99235.69;5091442;28;20511;-66
2022/07/15 06:03:55;;;;;;;1.15;0.70;;;;;;;28.78;36.29;99243.91;5087906;28;20134;-60
2022/07/15 06:06:21;;;;;;;3.30;0.82;;;;;;;28.69;37.32;99240.88;5100219;28;20054;-59
2022/07/15 06:08:46;;;;;;;0.90;0.70;;;;;;;28.54;37.52;99233.97;5105901;28;20343;-59
2022/07/15 06:11:12;;;;;;;1.23;0.75;;;;;;;28.50;37.61;99237.66;5093049;28;20032;-59
2022/07/15 06:13:38;;;;;;;1.20;0.77;;;;;;;28.52;37.49;99237.22;5104490;28;20402;-66
2022/07/15 06:16:06;;;;;;;0.90;0.68;;;;;;;28.52;37.63;99240.03;5103356;28;20105;-66
2022/07/15 06:18:32;;;;;;;0.82;0.70;;;;;;;28.51;37.51;99238.44;5103230;28;20143;-59
2022/07/15 06:20:57;;;;;;;0.80;0.70;;;;;;;28.55;37.47;99236.34;5108164;28;20122;-59
2022/07/15 06:23:23;;;;;;;1.13;0.80;;;;;;;28.53;37.70;99233.19;5093707;28;20169;-58
2022/07/15 06:25:49;;;;;;;0.90;0.63;;;;;;;28.54;37.40;99236.78;5103925;28;20060;-59
2022/07/15 06:28:15;;;;;;;2.83;0.77;;;;;;;28.55;37.52;99232.72;5089893;28;20559;-59
2022/07/15 06:30:40;;;;;;;0.93;0.70;;;;;;;28.53;37.49;99227.53;5088213;28;20044;-65
2022/07/15 06:33:06;;;;;;;0.65;0.55;;;;;;;28.48;37.33;99228.84;5096855;28;20043;-65
2022/07/15 06:35:31;;;;;;;1.02;0.70;;;;;;;28.50;37.49;99222.75;5105686;28;20035;-59
2022/07/15 06:37:57;;;;;;;0.98;0.70;;;;;;;28.49;37.55;99219.16;5102408;28;20040;-59
2022/07/15 06:40:22;;;;;;;1.08;0.88;;;;;;;28.50;37.74;99223.59;5102795;28;20043;-59
2022/07/15 06:42:47;;;;;;;0.88;0.70;;;;;;;28.52;37.42;99212.69;5099852;28;20044;-59
2022/07/15 06:45:13;;;;;;;1.75;0.65;;;;;;;28.51;37.29;99208.28;5087861;28;20412;-66
2022/07/15 06:47:42;;;;;;;0.70;0.60;;;;;;;28.51;37.38;99210.31;5100818;28;20416;-65
2022/07/15 06:50:09;;;;;;;0.70;0.63;;;;;;;28.54;37.24;99215.06;5103576;28;20048;-65
2022/07/15 06:52:35;;;;;;;1.10;0.80;;;;;;;28.57;37.47;99216.19;5079160;28;20392;-65
2022/07/15 06:55:01;;;;;;;2.05;0.88;;;;;;;28.59;37.37;99213.78;5096091;28;20048;-58
2022/07/15 06:57:27;;;;;;;1.25;0.88;;;;;;;28.58;37.09;99218.59;5100562;28;20078;-59
2022/07/15 06:59:53;;;;;;;4.93;0.80;;;;;;;28.49;37.27;99216.34;5105775;28;20047;-64
2022/07/15 07:02:18;;;;;;;6.00;1.17;;;;;;;28.47;36.98;99212.38;5097255;28;20048;-59
2022/07/15 07:04:44;;;;;;;2.30;1.10;;;;;;;28.55;37.02;99213.81;5100608;28;20047;-59
2022/07/15 07:07:10;;;;;;;2.55;1.15;;;;;;;28.49;36.79;99204.31;5089009;28;20047;-59
2022/07/15 07:09:35;;;;;;;3.55;1.50;;;;;;;28.53;36.73;99207.84;5104629;28;20043;-64
2022/07/15 07:12:01;;;;;;;3.70;1.60;;;;;;;28.52;36.96;99212.69;5101888;28;20126;-64
2022/07/15 07:14:26;;;;;;;2.53;1.40;;;;;;;28.55;36.44;99213.03;5100892;28;20171;-59
2022/07/15 07:16:52;;;;;;;2.47;1.20;;;;;;;28.55;36.16;99204.59;5102839;28;20047;-64
2022/07/15 07:19:17;;;;;;;3.22;1.60;;;;;;;28.52;36.33;99209.88;5106220;28;20040;-64
2022/07/15 07:21:42;;;;;;;3.58;1.50;;;;;;;28.56;36.51;99209.00;5099855;28;20051;-64
2022/07/15 07:24:08;;;;;;;4.32;1.65;;;;;;;28.56;36.47;99206.19;5100181;28;20432;-60
2022/07/15 07:26:34;;;;;;;3.83;1.80;;;;;;;28.55;36.41;99205.38;5110467;28;20057;-59
2022/07/15 07:29:00;;;;;;;3.03;1.50;;;;;;;28.57;36.70;99204.94;5101560;28;20036;-64
2022/07/15 07:31:26;;;;;;;5.93;1.70;;;;;;;28.58;36.57;99206.56;5092613;28;20036;-65
2022/07/15 07:33:56;;;;;;;4.40;1.58;;;;;;;28.62;36.70;99213.69;5091551;28;20063;-66
2022/07/15 07:36:21;;;;;;;4.50;1.75;;;;;;;28.62;36.85;99204.44;5090531;28;20051;-66
2022/07/15 07:38:47;;;;;;;3.00;1.60;;;;;;;28.64;36.93;99199.16;5089909;28;20040;-59
2022/07/15 07:41:12;;;;;;;4.38;1.77;;;;;;;28.68;36.79;99200.69;5094613;28;20415;-59
2022/07/15 07:43:38;;;;;;;5.15;1.50;;;;;;;28.67;36.32;99192.69;5095305;28;20877;-58
2022/07/15 07:46:04;;;;;;;4.18;1.98;;;;;;;28.55;37.34;99196.16;5098176;28;20523;-65
2022/07/15 07:48:30;;;;;;;4.28;1.70;;;;;;;28.49;37.25;99202.28;5100104;28;20422;-64
2022/07/15 07:50:56;;;;;;;6.32;1.58;;;;;;;28.53;37.10;99196.59;5099412;28;20559;-65
2022/07/15 07:53:22;;;;;;;3.70;1.33;;;;;;;28.55;37.12;99199.75;5099605;28;20044;-64
2022/07/15 07:55:48;;;;;;;2.65;1.40;;;;;;;28.58;37.26;99193.28;5104714;28;20048;-59
2022/07/15 07:58:16;;;;;;;4.65;2.30;;;;;;;28.61;37.49;99188.78;5096376;28;20055;-58
2022/07/15 08:00:42;;;;;;;4.70;2.20;;;;;;;28.65;37.47;99195.94;5105041;28;20043;-64
2022/07/15 08:03:08;;;;;;;8.98;2.33;;;;;;;28.65;37.07;99190.31;5104750;28;20051;-64
2022/07/15 08:05:33;;;;;;;6.10;2.60;;;;;;;28.68;37.03;99194.28;5094474;28;20051;-59
2022/07/15 08:08:15;;;;;;;6.25;2.60;;;;;;;28.71;36.58;99191.38;5096838;28;20039;-64
2022/07/15 08:10:43;;;;;;;3.65;2.40;;;;;;;28.61;37.56;99189.59;5096823;28;20051;-58
2022/07/15 08:13:08;;;;;;;3.55;2.15;;;;;;;28.47;37.44;99182.22;5101170;28;20047;-58
2022/07/15 08:15:34;;;;;;;5.15;2.33;;;;;;;28.52;37.07;99186.56;5097581;28;20050;-58
2022/07/15 08:18:01;;;;;;;4.13;2.10;;;;;;;28.58;36.86;99178.41;5105211;28;20125;-58
2022/07/15 08:20:27;;;;;;;3.80;1.75;;;;;;;28.63;36.64;99175.06;5101415;28;20044;-68
2022/07/15 08:22:58;;;;;;;4.07;2.13;;;;;;;28.63;36.40;99175.88;5098572;28;20040;-67
2022/07/15 08:25:25;;;;;;;4.88;2.47;;;;;;;28.69;36.36;99178.97;5093289;28;20032;-58
2022/07/15 08:27:51;;;;;;;3.55;1.85;;;;;;;28.63;35.71;99175.06;5074205;28;20036;-58
2022/07/15 08:30:16;;;;;;;4.45;2.22;;;;;;;28.53;36.54;99182.53;5094298;28;20063;-66
2022/07/15 08:32:41;;;;;;;4.68;2.40;;;;;;;28.41;36.69;99172.69;5091823;28;20066;-68
2022/07/15 08:35:07;;;;;;;4.13;2.40;;;;;;;28.45;36.52;99167.81;5098185;28;20047;-58
2022/07/15 08:37:33;;;;;;;5.60;2.25;;;;;;;28.49;36.38;99171.31;5109497;28;20082;-58
2022/07/15 08:39:58;;;;;;;3.33;1.88;;;;;;;28.51;35.99;99163.28;5101417;28;20246;-68
2022/07/15 08:42:23;;;;;;;4.07;2.17;;;;;;;28.51;35.98;99157.63;5103867;28;20032;-69
2022/07/15 08:44:49;;;;;;;6.20;2.30;;;;;;;28.57;35.97;99157.91;5095925;28;20036;-69
2022/07/15 08:47:14;;;;;;;8.77;2.25;;;;;;;28.67;35.83;99161.72;5095332;28;20043;-67
2022/07/15 08:49:43;;;;;;;10.27;2.40;;;;;;;28.70;35.58;99161.66;5073705;28;20044;-67
2022/07/15 08:52:08;;;;;;;6.95;2.42;;;;;;;28.59;36.46;99161.09;5098839;28;20046;-70
2022/07/15 08:54:34;;;;;;;10.73;2.22;;;;;;;28.52;36.48;99164.84;5095320;28;20122;-57
2022/07/15 08:56:59;;;;;;;9.70;2.42;;;;;;;28.57;36.63;99155.09;5095996;28;20047;-57
2022/07/15 08:59:25;;;;;;;8.15;2.40;;;;;;;28.63;36.66;99158.19;5094707;28;20032;-69
2022/07/15 09:01:53;;;;;;;8.93;2.15;;;;;;;28.63;35.72;99152.56;5093111;28;20507;-58
2022/07/15 09:04:18;;;;;;;7.22;2.40;;;;;;;28.55;37.13;99151.13;5093442;28;20031;-57
2022/07/15 09:06:47;;;;;;;7.57;2.33;;;;;;;28.49;37.54;99154.44;5093750;28;20042;-68
2022/07/15 09:09:26;;;;;;;6.38;1.98;;;;;;;28.55;37.42;99151.13;5097969;28;20460;-59
2022/07/15 09:11:57;;;;;;;7.35;2.00;;;;;;;28.66;36.72;99152.50;5096901;28;20044;-70
2022/07/15 09:14:24;;;;;;;5.47;2.20;;;;;;;28.60;37.10;99142.19;5091980;28;20053;-70
2022/07/15 09:16:50;;;;;;;5.05;1.95;;;;;;;28.49;37.06;99136.78;5096678;28;20520;-69
2022/07/15 09:19:17;;;;;;;9.73;2.20;;;;;;;28.54;37.15;99138.28;5093188;28;20044;-68
2022/07/15 09:21:42;;;;;;;3.28;1.40;;;;;;;28.60;36.68;99136.56;5099511;28;20875;-68
2022/07/15 09:24:18;;;;;;;6.28;1.70;;;;;;;28.62;36.67;99142.53;5096546;28;20051;-56
2022/07/15 09:26:44;;;;;;;3.30;1.45;;;;;;;28.65;36.42;99133.25;5099567;28;20042;-56
2022/07/15 09:36:01;;;;;;;3.42;1.60;;;;;;;28.71;35.19;99125.84;5095773;28;20047;-65
2022/07/15 09:37:58;;;;;;;4.38;1.63;;;;;;;28.54;36.18;99125.00;5096518;28;20105;-55
2022/07/15 09:40:23;;;;;;;3.35;1.70;;;;;;;28.56;36.50;99121.75;5097377;28;20042;-67
2022/07/15 09:43:06;;;;;;;3.22;1.30;;;;;;;28.63;36.35;99118.78;5105891;28;20120;-67
2022/07/15 09:45:35;;;;;;;3.20;1.20;;;;;;;28.67;35.54;99111.06;5095432;28;20132;-57
2022/07/15 09:48:14;;;;;;;2.47;1.20;;;;;;;28.58;37.14;99119.31;5093000;28;20100;-71
2022/07/15 09:50:40;;;;;;;5.65;1.60;;;;;;;28.59;36.70;99109.66;5100774;28;20063;-68
2022/07/15 09:53:13;;;;;;;6.88;1.42;;;;;;;28.67;36.54;99097.00;5094264;28;20407;-67
2022/07/15 09:55:40;;;;;;;5.70;1.50;;;;;;;28.61;35.80;99093.91;5096453;28;20047;-67
2022/07/15 09:58:07;;;;;;;3.28;1.42;;;;;;;28.58;37.00;99091.19;5098363;28;20040;-70
2022/07/15 10:00:34;;;;;;;5.10;1.42;;;;;;;28.57;36.99;99089.56;5091021;28;20028;-66
2022/07/15 10:03:01;;;;;;;6.95;1.52;;;;;;;28.62;36.81;99086.25;5087766;28;20079;-57
2022/07/15 10:05:27;;;;;;;5.30;1.38;;;;;;;28.66;36.55;99082.13;5088653;28;20040;-58
2022/07/15 10:07:56;;;;;;;3.60;1.60;;;;;;;28.69;35.66;99075.63;5089737;28;20047;-57
2022/07/15 10:10:23;;;;;;;3.75;1.65;;;;;;;28.62;36.51;99072.19;5093805;28;20044;-57
2022/07/15 10:13:09;;;;;;;4.00;1.30;;;;;;;28.56;36.03;99071.91;5075245;28;20074;-67
2022/07/15 10:15:50;;;;;;;5.32;1.50;;;;;;;28.62;35.86;99078.59;5071813;28;20061;-65
2022/07/15 10:18:21;;;;;;;2.67;1.20;;;;;;;28.67;35.67;99071.66;5073659;28;20059;-65
2022/07/15 10:21:17;;;;;;;5.70;1.33;;;;;;;28.67;35.80;99057.59;5071602;28;20075;-63
2022/07/15 10:23:54;;;;;;;6.00;1.23;;;;;;;28.68;36.07;99053.53;5080652;28;20079;-63
2022/07/15 10:26:51;;;;;;;3.28;1.30;;;;;;;28.67;36.04;99057.59;5080299;28;20080;-57
2022/07/15 10:29:17;;;;;;;2.10;1.10;;;;;;;28.67;36.06;99037.91;5055969;28;20086;-58
2022/07/15 10:31:44;;;;;;;6.50;1.55;;;;;;;28.61;36.56;99048.88;5082708;28;20083;-58
2022/07/15 10:34:12;;;;;;;2.90;1.20;;;;;;;28.63;36.17;99040.00;5069329;28;20066;-58
2022/07/15 10:36:47;;;;;;;2.33;1.00;;;;;;;28.60;36.68;99049.31;5073514;28;20040;-63
2022/07/15 10:39:16;;;;;;;3.92;1.00;;;;;;;28.61;36.58;99050.91;5079555;28;20040;-58
2022/07/15 10:41:57;;;;;;;4.45;0.90;;;;;;;28.58;36.59;99051.78;5077775;28;20043;-57
2022/07/15 10:44:32;;;;;;;2.17;0.90;;;;;;;28.61;36.70;99054.50;5087546;28;20044;-57
2022/07/15 10:47:12;;;;;;;1.45;0.93;;;;;;;28.60;36.92;99077.47;5085635;28;20040;-63
2022/07/15 10:49:39;;;;;;;2.80;1.30;;;;;;;28.59;36.72;99039.28;5072777;28;20040;-64
2022/07/15 10:52:23;;;;;;;1.92;0.77;;;;;;;28.60;36.74;99052.13;5079898;28;20040;-57
2022/07/15 10:54:48;;;;;;;1.10;0.80;;;;;;;28.60;36.72;99052.91;5071780;28;20566;-63
2022/07/15 10:57:16;;;;;;;2.03;1.00;;;;;;;28.59;36.81;99045.72;5068163;28;20045;-63
2022/07/15 10:59:53;;;;;;;1.30;0.90;;;;;;;28.56;36.88;99037.34;5075585;28;20038;-63
2022/07/15 11:02:21;;;;;;;2.97;1.08;;;;;;;28.56;36.66;99024.06;5073653;28;20048;-63
2022/07/15 11:04:48;;;;;;;1.52;0.88;;;;;;;28.56;36.86;99045.78;5070336;28;20060;-63
2022/07/15 11:07:13;;;;;;;1.50;0.90;;;;;;;28.59;36.87;99036.47;5065183;28;20075;-57
2022/07/15 11:10:13;;;;;;;1.75;0.88;;;;;;;28.57;36.78;99038.91;5070804;28;20063;-64
2022/07/15 11:12:48;;;;;;;7.70;0.90;;;;;;;28.60;36.87;99029.63;5071171;28;20546;-62
2022/07/15 11:15:18;;;;;;;5.68;1.00;;;;;;;28.63;36.81;99049.22;5072317;28;20045;-58
2022/07/15 11:17:46;;;;;;;1.92;0.90;;;;;;;28.59;36.13;99026.00;5069342;28;20059;-61
2022/07/15 11:20:21;;;;;;;2.28;0.93;;;;;;;28.50;37.98;99025.81;5060167;28;20404;-58
2022/07/15 11:22:52;;;;;;;2.88;1.20;;;;;;;28.57;37.71;99024.84;5073703;28;20048;-63
2022/07/15 11:25:24;;;;;;;5.07;1.25;;;;;;;28.54;36.74;99015.28;5069594;28;20040;-57
2022/07/15 11:28:04;;;;;;;4.40;1.30;;;;;;;28.43;38.21;99015.53;5071606;28;20086;-58
2022/07/15 11:30:42;;;;;;;2.75;1.20;;;;;;;28.45;37.95;99015.88;5075131;28;20504;-61
2022/07/15 11:33:10;;;;;;;3.53;1.20;;;;;;;28.50;37.35;99006.94;5081039;28;20508;-62
2022/07/15 11:35:53;;;;;;;4.20;1.30;;;;;;;28.47;35.58;99018.25;5065969;28;20608;-59
2022/07/15 11:38:20;;;;;;;;;;;;;;;28.51;37.11;99008.50;5066616;28;20048;-67
2022/07/15 11:46:19;;;;;;;2.88;1.13;;;;;;;28.59;36.18;98983.00;5072556;28;20051;-57
2022/07/15 11:48:44;;;;;;;3.08;1.10;;;;;;;28.61;36.14;98991.81;5058897;28;20333;-57